sensor_id;sensor_type;location;lat;lon;timestamp;P1;durP1;ratioP1;P2;durP2;ratioP2
1366;SDS011;16877;48.810;9.282;2023-05-19T00:02:18;3.00;;;1.90;;
1366;SDS011;16877;48.810;9.282;2023-05-19T00:04:46;6.10;;;2.87;;
1366;SDS011;16877;48.810;9.282;2023-05-19T00:07:15;4.40;;;2.63;;
1366;SDS011;16877;48.810;9.282;2023-05-19T00:09:45;3.10;;;1.93;;
1366;SDS011;16877;48.810;9.282;2023-05-19T00:12:13;3.83;;;2.50;;
1366;SDS011;16877;48.810;9.282;2023-05-19T00:14:42;4.70;;;2.30;;
1366;SDS011;16877;48.810;9.282;2023-05-19T00:17:10;4.90;;;2.20;;
1366;SDS011;16877;48.810;9.282;2023-05-19T00:19:40;5.13;;;2.30;;
1366;SDS011;16877;48.810;9.282;2023-05-19T00:22:09;5.20;;;2.40;;
1366;SDS011;16877;48.810;9.282;2023-05-19T00:24:36;5.10;;;2.23;;
1366;SDS011;16877;48.810;9.282;2023-05-19T00:27:08;4.60;;;2.50;;
1366;SDS011;16877;48.810;9.282;2023-05-19T00:29:35;3.10;;;2.30;;
1366;SDS011;16877;48.810;9.282;2023-05-19T00:32:03;4.60;;;2.83;;
1366;SDS011;16877;48.810;9.282;2023-05-19T00:34:30;5.57;;;2.80;;
1366;SDS011;16877;48.810;9.282;2023-05-19T00:37:00;5.40;;;2.67;;
1366;SDS011;16877;48.810;9.282;2023-05-19T00:39:27;3.40;;;2.00;;
1366;SDS011;16877;48.810;9.282;2023-05-19T00:41:55;3.40;;;2.27;;
1366;SDS011;16877;48.810;9.282;2023-05-19T00:44:23;6.40;;;2.90;;
1366;SDS011;16877;48.810;9.282;2023-05-19T00:46:50;4.47;;;2.80;;
1366;SDS011;16877;48.810;9.282;2023-05-19T00:49:19;3.30;;;2.07;;
1366;SDS011;16877;48.810;9.282;2023-05-19T00:51:47;4.53;;;2.23;;
1366;SDS011;16877;48.810;9.282;2023-05-19T00:54:16;4.73;;;2.23;;
1366;SDS011;16877;48.810;9.282;2023-05-19T00:56:46;4.93;;;2.37;;
1366;SDS011;16877;48.810;9.282;2023-05-19T00:59:14;7.00;;;3.17;;
1366;SDS011;16877;48.810;9.282;2023-05-19T01:01:41;4.37;;;2.40;;
1366;SDS011;16877;48.810;9.282;2023-05-19T01:04:09;5.27;;;2.20;;
1366;SDS011;16877;48.810;9.282;2023-05-19T01:06:41;3.60;;;2.20;;
1366;SDS011;16877;48.810;9.282;2023-05-19T01:09:09;3.87;;;2.23;;
1366;SDS011;16877;48.810;9.282;2023-05-19T01:11:39;4.00;;;2.50;;
1366;SDS011;16877;48.810;9.282;2023-05-19T01:14:06;5.17;;;2.33;;
1366;SDS011;16877;48.810;9.282;2023-05-19T01:16:35;3.40;;;2.13;;
1366;SDS011;16877;48.810;9.282;2023-05-19T01:19:10;4.13;;;2.67;;
1366;SDS011;16877;48.810;9.282;2023-05-19T01:22:01;4.00;;;2.10;;
1366;SDS011;16877;48.810;9.282;2023-05-19T01:24:50;4.30;;;2.50;;
1366;SDS011;16877;48.810;9.282;2023-05-19T01:27:44;4.63;;;2.47;;
1366;SDS011;16877;48.810;9.282;2023-05-19T01:30:28;3.57;;;2.40;;
1366;SDS011;16877;48.810;9.282;2023-05-19T01:33:00;3.97;;;2.10;;
1366;SDS011;16877;48.810;9.282;2023-05-19T01:35:30;4.10;;;2.10;;
1366;SDS011;16877;48.810;9.282;2023-05-19T01:38:00;4.30;;;2.60;;
1366;SDS011;16877;48.810;9.282;2023-05-19T01:40:29;3.67;;;2.40;;
1366;SDS011;16877;48.810;9.282;2023-05-19T01:42:59;6.70;;;2.33;;
1366;SDS011;16877;48.810;9.282;2023-05-19T01:45:29;4.30;;;1.83;;
1366;SDS011;16877;48.810;9.282;2023-05-19T01:47:58;5.20;;;2.83;;
1366;SDS011;16877;48.810;9.282;2023-05-19T01:50:27;4.77;;;2.43;;
1366;SDS011;16877;48.810;9.282;2023-05-19T01:52:57;4.70;;;2.90;;
1366;SDS011;16877;48.810;9.282;2023-05-19T01:55:27;3.57;;;2.30;;
1366;SDS011;16877;48.810;9.282;2023-05-19T01:57:59;4.00;;;2.30;;
1366;SDS011;16877;48.810;9.282;2023-05-19T02:00:39;4.20;;;2.43;;
1366;SDS011;16877;48.810;9.282;2023-05-19T02:03:16;4.30;;;2.93;;
1366;SDS011;16877;48.810;9.282;2023-05-19T02:06:08;3.43;;;2.30;;
1366;SDS011;16877;48.810;9.282;2023-05-19T02:08:47;3.67;;;2.40;;
1366;SDS011;16877;48.810;9.282;2023-05-19T02:11:21;5.30;;;2.90;;
1366;SDS011;16877;48.810;9.282;2023-05-19T02:13:54;5.10;;;2.97;;
1366;SDS011;16877;48.810;9.282;2023-05-19T02:16:28;4.13;;;2.40;;
1366;SDS011;16877;48.810;9.282;2023-05-19T02:19:05;4.43;;;1.90;;
1366;SDS011;16877;48.810;9.282;2023-05-19T02:21:45;3.63;;;1.67;;
1366;SDS011;16877;48.810;9.282;2023-05-19T02:24:12;3.60;;;2.33;;
1366;SDS011;16877;48.810;9.282;2023-05-19T02:26:40;3.50;;;2.40;;
1366;SDS011;16877;48.810;9.282;2023-05-19T02:29:08;4.43;;;2.20;;
1366;SDS011;16877;48.810;9.282;2023-05-19T02:31:36;6.87;;;3.20;;
1366;SDS011;16877;48.810;9.282;2023-05-19T02:34:04;4.73;;;2.50;;
1366;SDS011;16877;48.810;9.282;2023-05-19T02:36:33;4.10;;;2.10;;
1366;SDS011;16877;48.810;9.282;2023-05-19T02:39:00;4.30;;;2.57;;
1366;SDS011;16877;48.810;9.282;2023-05-19T02:41:28;3.57;;;2.37;;
1366;SDS011;16877;48.810;9.282;2023-05-19T02:43:55;4.50;;;2.50;;
1366;SDS011;16877;48.810;9.282;2023-05-19T02:46:24;5.60;;;2.50;;
1366;SDS011;16877;48.810;9.282;2023-05-19T02:48:53;6.07;;;2.90;;
1366;SDS011;16877;48.810;9.282;2023-05-19T02:51:21;3.53;;;2.20;;
1366;SDS011;16877;48.810;9.282;2023-05-19T02:53:48;3.83;;;2.10;;
1366;SDS011;16877;48.810;9.282;2023-05-19T02:56:15;6.73;;;2.87;;
1366;SDS011;16877;48.810;9.282;2023-05-19T02:58:43;4.60;;;2.37;;
1366;SDS011;16877;48.810;9.282;2023-05-19T03:01:10;4.57;;;2.57;;
1366;SDS011;16877;48.810;9.282;2023-05-19T03:03:39;5.30;;;2.80;;
1366;SDS011;16877;48.810;9.282;2023-05-19T03:06:09;4.93;;;2.47;;
1366;SDS011;16877;48.810;9.282;2023-05-19T03:08:38;3.80;;;2.20;;
1366;SDS011;16877;48.810;9.282;2023-05-19T03:11:08;6.07;;;2.47;;
1366;SDS011;16877;48.810;9.282;2023-05-19T03:13:35;4.87;;;2.20;;
1366;SDS011;16877;48.810;9.282;2023-05-19T03:16:02;3.83;;;2.47;;
1366;SDS011;16877;48.810;9.282;2023-05-19T03:18:32;3.43;;;2.27;;
1366;SDS011;16877;48.810;9.282;2023-05-19T03:21:00;3.80;;;2.20;;
1366;SDS011;16877;48.810;9.282;2023-05-19T03:23:29;4.63;;;2.10;;
1366;SDS011;16877;48.810;9.282;2023-05-19T03:25:56;5.30;;;2.47;;
1366;SDS011;16877;48.810;9.282;2023-05-19T03:28:25;3.50;;;1.83;;
1366;SDS011;16877;48.810;9.282;2023-05-19T03:30:52;5.20;;;2.27;;
1366;SDS011;16877;48.810;9.282;2023-05-19T03:33:20;3.40;;;2.20;;
1366;SDS011;16877;48.810;9.282;2023-05-19T03:35:49;5.10;;;2.53;;
1366;SDS011;16877;48.810;9.282;2023-05-19T03:38:17;3.80;;;2.13;;
1366;SDS011;16877;48.810;9.282;2023-05-19T03:40:46;4.87;;;2.67;;
1366;SDS011;16877;48.810;9.282;2023-05-19T03:43:23;7.90;;;2.83;;
1366;SDS011;16877;48.810;9.282;2023-05-19T03:45:50;4.30;;;2.63;;
1366;SDS011;16877;48.810;9.282;2023-05-19T03:48:18;5.83;;;3.00;;
1366;SDS011;16877;48.810;9.282;2023-05-19T03:50:45;6.53;;;2.83;;
1366;SDS011;16877;48.810;9.282;2023-05-19T03:53:13;3.77;;;2.30;;
1366;SDS011;16877;48.810;9.282;2023-05-19T03:55:41;4.03;;;2.40;;
1366;SDS011;16877;48.810;9.282;2023-05-19T03:58:10;5.47;;;2.40;;
1366;SDS011;16877;48.810;9.282;2023-05-19T04:00:38;3.50;;;1.87;;
1366;SDS011;16877;48.810;9.282;2023-05-19T04:03:06;3.80;;;2.13;;
1366;SDS011;16877;48.810;9.282;2023-05-19T04:05:33;5.47;;;2.87;;
1366;SDS011;16877;48.810;9.282;2023-05-19T04:08:01;3.93;;;2.43;;
1366;SDS011;16877;48.810;9.282;2023-05-19T04:10:32;3.67;;;2.30;;
1366;SDS011;16877;48.810;9.282;2023-05-19T04:13:00;3.63;;;2.00;;
1366;SDS011;16877;48.810;9.282;2023-05-19T04:15:29;4.13;;;2.53;;
1366;SDS011;16877;48.810;9.282;2023-05-19T04:17:57;4.60;;;1.80;;
1366;SDS011;16877;48.810;9.282;2023-05-19T04:20:24;3.93;;;2.17;;
1366;SDS011;16877;48.810;9.282;2023-05-19T04:22:52;3.97;;;2.53;;
1366;SDS011;16877;48.810;9.282;2023-05-19T04:25:19;3.77;;;2.07;;
1366;SDS011;16877;48.810;9.282;2023-05-19T04:27:49;4.77;;;2.60;;
1366;SDS011;16877;48.810;9.282;2023-05-19T04:30:17;4.90;;;2.50;;
1366;SDS011;16877;48.810;9.282;2023-05-19T04:32:48;6.00;;;2.50;;
1366;SDS011;16877;48.810;9.282;2023-05-19T04:35:16;5.57;;;2.63;;
1366;SDS011;16877;48.810;9.282;2023-05-19T04:37:43;3.93;;;2.30;;
1366;SDS011;16877;48.810;9.282;2023-05-19T04:40:25;3.63;;;2.00;;
1366;SDS011;16877;48.810;9.282;2023-05-19T04:42:55;4.20;;;2.20;;
1366;SDS011;16877;48.810;9.282;2023-05-19T04:45:23;8.90;;;2.83;;
1366;SDS011;16877;48.810;9.282;2023-05-19T04:47:52;4.10;;;2.40;;
1366;SDS011;16877;48.810;9.282;2023-05-19T04:50:21;7.20;;;2.80;;
1366;SDS011;16877;48.810;9.282;2023-05-19T04:53:04;3.23;;;1.90;;
1366;SDS011;16877;48.810;9.282;2023-05-19T04:55:33;3.60;;;2.00;;
1366;SDS011;16877;48.810;9.282;2023-05-19T04:58:38;6.63;;;3.30;;
1366;SDS011;16877;48.810;9.282;2023-05-19T05:01:06;7.20;;;2.63;;
1366;SDS011;16877;48.810;9.282;2023-05-19T05:03:39;3.40;;;2.50;;
1366;SDS011;16877;48.810;9.282;2023-05-19T05:06:09;3.47;;;2.03;;
1366;SDS011;16877;48.810;9.282;2023-05-19T05:08:38;4.57;;;2.70;;
1366;SDS011;16877;48.810;9.282;2023-05-19T05:11:07;4.03;;;2.60;;
1366;SDS011;16877;48.810;9.282;2023-05-19T05:13:38;2.90;;;2.00;;
1366;SDS011;16877;48.810;9.282;2023-05-19T05:16:07;2.93;;;2.00;;
1366;SDS011;16877;48.810;9.282;2023-05-19T05:18:37;4.90;;;2.90;;
1366;SDS011;16877;48.810;9.282;2023-05-19T05:21:15;4.10;;;2.07;;
1366;SDS011;16877;48.810;9.282;2023-05-19T05:23:43;3.60;;;2.37;;
1366;SDS011;16877;48.810;9.282;2023-05-19T05:26:18;7.00;;;3.07;;
1366;SDS011;16877;48.810;9.282;2023-05-19T05:28:48;3.70;;;2.20;;
1366;SDS011;16877;48.810;9.282;2023-05-19T05:31:16;3.93;;;2.47;;
1366;SDS011;16877;48.810;9.282;2023-05-19T05:33:58;4.73;;;2.27;;
1366;SDS011;16877;48.810;9.282;2023-05-19T05:36:41;4.10;;;2.70;;
1366;SDS011;16877;48.810;9.282;2023-05-19T05:39:08;3.77;;;2.60;;
1366;SDS011;16877;48.810;9.282;2023-05-19T05:41:36;3.00;;;1.70;;
1366;SDS011;16877;48.810;9.282;2023-05-19T05:44:20;4.10;;;2.07;;
1366;SDS011;16877;48.810;9.282;2023-05-19T05:46:48;7.73;;;2.40;;
1366;SDS011;16877;48.810;9.282;2023-05-19T05:49:16;3.43;;;2.43;;
1366;SDS011;16877;48.810;9.282;2023-05-19T05:51:44;4.00;;;2.53;;
1366;SDS011;16877;48.810;9.282;2023-05-19T05:54:12;4.47;;;2.77;;
1366;SDS011;16877;48.810;9.282;2023-05-19T05:56:40;4.97;;;2.57;;
1366;SDS011;16877;48.810;9.282;2023-05-19T05:59:09;3.70;;;2.23;;
1366;SDS011;16877;48.810;9.282;2023-05-19T06:01:37;4.33;;;2.50;;
1366;SDS011;16877;48.810;9.282;2023-05-19T06:04:15;3.27;;;2.00;;
1366;SDS011;16877;48.810;9.282;2023-05-19T06:06:47;5.00;;;2.87;;
1366;SDS011;16877;48.810;9.282;2023-05-19T06:09:16;5.83;;;2.87;;
1366;SDS011;16877;48.810;9.282;2023-05-19T06:11:44;3.80;;;2.53;;
1366;SDS011;16877;48.810;9.282;2023-05-19T06:14:26;7.13;;;3.33;;
1366;SDS011;16877;48.810;9.282;2023-05-19T06:16:55;4.67;;;2.57;;
1366;SDS011;16877;48.810;9.282;2023-05-19T06:19:23;5.33;;;2.50;;
1366;SDS011;16877;48.810;9.282;2023-05-19T06:22:00;3.77;;;2.60;;
1366;SDS011;16877;48.810;9.282;2023-05-19T06:24:29;4.70;;;2.50;;
1366;SDS011;16877;48.810;9.282;2023-05-19T06:26:57;6.80;;;2.83;;
1366;SDS011;16877;48.810;9.282;2023-05-19T06:29:24;3.00;;;1.90;;
1366;SDS011;16877;48.810;9.282;2023-05-19T06:31:52;4.00;;;2.20;;
1366;SDS011;16877;48.810;9.282;2023-05-19T06:34:21;4.27;;;2.10;;
1366;SDS011;16877;48.810;9.282;2023-05-19T06:36:48;4.93;;;2.53;;
1366;SDS011;16877;48.810;9.282;2023-05-19T06:39:17;3.00;;;1.73;;
1366;SDS011;16877;48.810;9.282;2023-05-19T06:41:45;3.00;;;1.90;;
1366;SDS011;16877;48.810;9.282;2023-05-19T06:44:12;3.47;;;1.97;;
1366;SDS011;16877;48.810;9.282;2023-05-19T06:46:55;3.33;;;1.93;;
1366;SDS011;16877;48.810;9.282;2023-05-19T06:49:25;3.83;;;1.80;;
1366;SDS011;16877;48.810;9.282;2023-05-19T06:51:53;4.80;;;2.27;;
1366;SDS011;16877;48.810;9.282;2023-05-19T06:54:21;3.90;;;2.30;;
1366;SDS011;16877;48.810;9.282;2023-05-19T06:56:48;4.03;;;2.23;;
1366;SDS011;16877;48.810;9.282;2023-05-19T06:59:16;4.20;;;2.70;;
1366;SDS011;16877;48.810;9.282;2023-05-19T07:01:45;5.33;;;2.93;;
1366;SDS011;16877;48.810;9.282;2023-05-19T07:04:13;5.33;;;2.43;;
1366;SDS011;16877;48.810;9.282;2023-05-19T07:06:42;7.97;;;2.90;;
1366;SDS011;16877;48.810;9.282;2023-05-19T07:09:10;4.43;;;2.60;;
1366;SDS011;16877;48.810;9.282;2023-05-19T07:11:38;5.33;;;2.13;;
1366;SDS011;16877;48.810;9.282;2023-05-19T07:14:05;4.53;;;2.63;;
1366;SDS011;16877;48.810;9.282;2023-05-19T07:16:33;5.40;;;2.47;;
1366;SDS011;16877;48.810;9.282;2023-05-19T07:19:00;5.23;;;2.97;;
1366;SDS011;16877;48.810;9.282;2023-05-19T07:21:31;6.10;;;3.10;;
1366;SDS011;16877;48.810;9.282;2023-05-19T07:24:05;5.40;;;2.60;;
1366;SDS011;16877;48.810;9.282;2023-05-19T07:26:33;5.83;;;3.37;;
1366;SDS011;16877;48.810;9.282;2023-05-19T07:29:16;6.77;;;3.20;;
1366;SDS011;16877;48.810;9.282;2023-05-19T07:31:43;6.47;;;3.40;;
1366;SDS011;16877;48.810;9.282;2023-05-19T07:34:18;4.10;;;2.73;;
1366;SDS011;16877;48.810;9.282;2023-05-19T07:36:46;4.90;;;2.53;;
1366;SDS011;16877;48.810;9.282;2023-05-19T07:39:30;4.80;;;3.10;;
1366;SDS011;16877;48.810;9.282;2023-05-19T07:42:02;4.47;;;2.50;;
1366;SDS011;16877;48.810;9.282;2023-05-19T07:44:32;6.60;;;3.43;;
1366;SDS011;16877;48.810;9.282;2023-05-19T07:47:00;3.93;;;2.90;;
1366;SDS011;16877;48.810;9.282;2023-05-19T07:49:27;5.00;;;2.70;;
1366;SDS011;16877;48.810;9.282;2023-05-19T07:52:10;5.30;;;2.80;;
1366;SDS011;16877;48.810;9.282;2023-05-19T07:54:39;6.67;;;3.50;;
1366;SDS011;16877;48.810;9.282;2023-05-19T07:57:21;4.93;;;3.10;;
1366;SDS011;16877;48.810;9.282;2023-05-19T07:59:49;5.00;;;2.80;;
1366;SDS011;16877;48.810;9.282;2023-05-19T08:02:16;6.60;;;3.17;;
1366;SDS011;16877;48.810;9.282;2023-05-19T08:04:48;4.57;;;2.90;;
1366;SDS011;16877;48.810;9.282;2023-05-19T08:07:30;6.40;;;3.40;;
1366;SDS011;16877;48.810;9.282;2023-05-19T08:10:03;6.73;;;3.30;;
1366;SDS011;16877;48.810;9.282;2023-05-19T08:12:31;6.53;;;3.40;;
1366;SDS011;16877;48.810;9.282;2023-05-19T08:15:00;6.13;;;3.47;;
1366;SDS011;16877;48.810;9.282;2023-05-19T08:17:27;5.07;;;3.00;;
1366;SDS011;16877;48.810;9.282;2023-05-19T08:19:55;5.13;;;2.70;;
1366;SDS011;16877;48.810;9.282;2023-05-19T08:22:22;5.30;;;3.10;;
1366;SDS011;16877;48.810;9.282;2023-05-19T08:24:52;5.00;;;3.13;;
1366;SDS011;16877;48.810;9.282;2023-05-19T08:27:21;5.87;;;3.13;;
1366;SDS011;16877;48.810;9.282;2023-05-19T08:29:48;4.53;;;2.67;;
1366;SDS011;16877;48.810;9.282;2023-05-19T08:32:16;5.20;;;2.73;;
1366;SDS011;16877;48.810;9.282;2023-05-19T08:34:43;5.30;;;2.90;;
1366;SDS011;16877;48.810;9.282;2023-05-19T08:37:11;5.80;;;2.83;;
1366;SDS011;16877;48.810;9.282;2023-05-19T08:39:38;6.23;;;2.50;;
1366;SDS011;16877;48.810;9.282;2023-05-19T08:42:05;5.77;;;2.90;;
1366;SDS011;16877;48.810;9.282;2023-05-19T08:44:35;5.73;;;3.77;;
1366;SDS011;16877;48.810;9.282;2023-05-19T08:47:04;5.17;;;3.30;;
1366;SDS011;16877;48.810;9.282;2023-05-19T08:49:42;4.60;;;2.67;;
1366;SDS011;16877;48.810;9.282;2023-05-19T08:52:14;5.07;;;2.67;;
1366;SDS011;16877;48.810;9.282;2023-05-19T08:54:49;5.90;;;3.53;;
1366;SDS011;16877;48.810;9.282;2023-05-19T08:57:25;5.40;;;2.90;;
1366;SDS011;16877;48.810;9.282;2023-05-19T08:59:55;5.97;;;3.07;;
1366;SDS011;16877;48.810;9.282;2023-05-19T09:02:33;8.17;;;3.10;;
1366;SDS011;16877;48.810;9.282;2023-05-19T09:05:02;6.10;;;2.93;;
1366;SDS011;16877;48.810;9.282;2023-05-19T09:07:29;5.47;;;2.97;;
1366;SDS011;16877;48.810;9.282;2023-05-19T09:09:58;4.73;;;3.03;;
1366;SDS011;16877;48.810;9.282;2023-05-19T09:12:26;4.63;;;2.80;;
1366;SDS011;16877;48.810;9.282;2023-05-19T09:14:56;4.60;;;2.60;;
1366;SDS011;16877;48.810;9.282;2023-05-19T09:17:25;5.05;;;2.50;;
1366;SDS011;16877;48.810;9.282;2023-05-19T09:20:07;7.80;;;2.77;;
1366;SDS011;16877;48.810;9.282;2023-05-19T09:22:39;5.73;;;2.60;;
1366;SDS011;16877;48.810;9.282;2023-05-19T09:25:18;5.73;;;3.50;;
1366;SDS011;16877;48.810;9.282;2023-05-19T09:27:46;6.43;;;2.40;;
1366;SDS011;16877;48.810;9.282;2023-05-19T09:30:17;8.77;;;3.47;;
1366;SDS011;16877;48.810;9.282;2023-05-19T09:32:45;7.07;;;2.90;;
1366;SDS011;16877;48.810;9.282;2023-05-19T09:35:14;5.50;;;3.10;;
1366;SDS011;16877;48.810;9.282;2023-05-19T09:37:44;6.00;;;3.20;;
1366;SDS011;16877;48.810;9.282;2023-05-19T09:40:12;4.23;;;2.50;;
1366;SDS011;16877;48.810;9.282;2023-05-19T09:42:55;9.13;;;3.20;;
1366;SDS011;16877;48.810;9.282;2023-05-19T09:45:25;5.13;;;3.33;;
1366;SDS011;16877;48.810;9.282;2023-05-19T09:47:54;9.70;;;4.20;;
1366;SDS011;16877;48.810;9.282;2023-05-19T09:50:23;8.20;;;3.37;;
1366;SDS011;16877;48.810;9.282;2023-05-19T09:52:54;7.33;;;4.30;;
1366;SDS011;16877;48.810;9.282;2023-05-19T09:55:23;8.27;;;3.20;;
1366;SDS011;16877;48.810;9.282;2023-05-19T09:57:54;5.70;;;3.60;;
1366;SDS011;16877;48.810;9.282;2023-05-19T10:00:21;6.40;;;4.60;;
1366;SDS011;16877;48.810;9.282;2023-05-19T10:02:52;8.27;;;3.20;;
1366;SDS011;16877;48.810;9.282;2023-05-19T10:05:21;8.90;;;3.77;;
1366;SDS011;16877;48.810;9.282;2023-05-19T10:07:51;8.00;;;4.47;;
1366;SDS011;16877;48.810;9.282;2023-05-19T10:10:19;7.57;;;4.37;;
1366;SDS011;16877;48.810;9.282;2023-05-19T10:12:47;12.27;;;5.30;;
1366;SDS011;16877;48.810;9.282;2023-05-19T10:15:20;8.60;;;4.73;;
1366;SDS011;16877;48.810;9.282;2023-05-19T10:17:47;7.30;;;4.57;;
1366;SDS011;16877;48.810;9.282;2023-05-19T10:20:18;7.20;;;3.70;;
1366;SDS011;16877;48.810;9.282;2023-05-19T10:23:00;6.40;;;4.07;;
1366;SDS011;16877;48.810;9.282;2023-05-19T10:25:43;10.40;;;5.20;;
1366;SDS011;16877;48.810;9.282;2023-05-19T10:28:13;9.70;;;5.87;;
1366;SDS011;16877;48.810;9.282;2023-05-19T10:30:45;7.03;;;4.77;;
1366;SDS011;16877;48.810;9.282;2023-05-19T10:33:15;9.50;;;5.57;;
1366;SDS011;16877;48.810;9.282;2023-05-19T10:36:04;9.03;;;4.20;;
1366;SDS011;16877;48.810;9.282;2023-05-19T10:38:51;9.33;;;5.13;;
1366;SDS011;16877;48.810;9.282;2023-05-19T10:41:40;6.83;;;4.60;;
1366;SDS011;16877;48.810;9.282;2023-05-19T10:44:14;9.33;;;5.13;;
1366;SDS011;16877;48.810;9.282;2023-05-19T10:46:48;8.20;;;4.70;;
1366;SDS011;16877;48.810;9.282;2023-05-19T10:49:18;8.50;;;4.83;;
1366;SDS011;16877;48.810;9.282;2023-05-19T10:51:48;9.40;;;5.47;;
1366;SDS011;16877;48.810;9.282;2023-05-19T10:57:05;7.57;;;4.77;;
1366;SDS011;16877;48.810;9.282;2023-05-19T10:59:36;9.37;;;5.73;;
1366;SDS011;16877;48.810;9.282;2023-05-19T11:02:04;9.80;;;5.10;;
1366;SDS011;16877;48.810;9.282;2023-05-19T11:04:38;10.33;;;4.87;;
1366;SDS011;16877;48.810;9.282;2023-05-19T11:07:15;6.83;;;4.83;;
1366;SDS011;16877;48.810;9.282;2023-05-19T11:09:47;8.80;;;5.90;;
1366;SDS011;16877;48.810;9.282;2023-05-19T11:12:18;5.60;;;4.40;;
1366;SDS011;16877;48.810;9.282;2023-05-19T11:14:47;10.50;;;5.70;;
1366;SDS011;16877;48.810;9.282;2023-05-19T11:17:14;11.10;;;5.97;;
1366;SDS011;16877;48.810;9.282;2023-05-19T11:19:51;7.70;;;4.80;;
1366;SDS011;16877;48.810;9.282;2023-05-19T11:22:23;10.30;;;5.70;;
1366;SDS011;16877;48.810;9.282;2023-05-19T11:24:53;6.37;;;4.83;;
1366;SDS011;16877;48.810;9.282;2023-05-19T11:27:24;6.60;;;4.17;;
1366;SDS011;16877;48.810;9.282;2023-05-19T11:29:53;8.43;;;4.70;;
1366;SDS011;16877;48.810;9.282;2023-05-19T11:32:21;8.90;;;4.57;;
1366;SDS011;16877;48.810;9.282;2023-05-19T11:34:51;9.50;;;4.90;;
1366;SDS011;16877;48.810;9.282;2023-05-19T11:37:20;8.60;;;4.77;;
1366;SDS011;16877;48.810;9.282;2023-05-19T11:39:50;9.93;;;4.30;;
1366;SDS011;16877;48.810;9.282;2023-05-19T11:42:18;7.97;;;4.80;;
1366;SDS011;16877;48.810;9.282;2023-05-19T11:44:46;7.60;;;4.00;;
1366;SDS011;16877;48.810;9.282;2023-05-19T11:47:16;6.70;;;4.20;;
1366;SDS011;16877;48.810;9.282;2023-05-19T11:49:44;7.53;;;4.93;;
1366;SDS011;16877;48.810;9.282;2023-05-19T11:52:20;7.57;;;5.07;;
1366;SDS011;16877;48.810;9.282;2023-05-19T11:54:54;6.83;;;4.53;;
1366;SDS011;16877;48.810;9.282;2023-05-19T11:57:26;8.87;;;5.07;;
1366;SDS011;16877;48.810;9.282;2023-05-19T11:59:56;7.20;;;4.47;;
1366;SDS011;16877;48.810;9.282;2023-05-19T12:02:27;6.37;;;4.10;;
1366;SDS011;16877;48.810;9.282;2023-05-19T12:04:56;8.03;;;4.63;;
1366;SDS011;16877;48.810;9.282;2023-05-19T12:07:39;7.37;;;4.33;;
1366;SDS011;16877;48.810;9.282;2023-05-19T12:10:09;7.20;;;4.53;;
1366;SDS011;16877;48.810;9.282;2023-05-19T12:12:45;6.60;;;4.20;;
1366;SDS011;16877;48.810;9.282;2023-05-19T12:15:27;7.70;;;4.47;;
1366;SDS011;16877;48.810;9.282;2023-05-19T12:18:12;6.50;;;4.77;;
1366;SDS011;16877;48.810;9.282;2023-05-19T12:20:54;11.57;;;4.80;;
1366;SDS011;16877;48.810;9.282;2023-05-19T12:23:51;7.40;;;4.50;;
1366;SDS011;16877;48.810;9.282;2023-05-19T12:26:26;6.70;;;4.30;;
1366;SDS011;16877;48.810;9.282;2023-05-19T12:29:04;8.80;;;4.40;;
1366;SDS011;16877;48.810;9.282;2023-05-19T12:31:45;7.10;;;4.10;;
1366;SDS011;16877;48.810;9.282;2023-05-19T12:34:15;6.03;;;4.00;;
1366;SDS011;16877;48.810;9.282;2023-05-19T12:36:46;8.90;;;3.90;;
1366;SDS011;16877;48.810;9.282;2023-05-19T12:39:34;7.13;;;4.50;;
1366;SDS011;16877;48.810;9.282;2023-05-19T12:42:09;10.63;;;4.37;;
1366;SDS011;16877;48.810;9.282;2023-05-19T12:44:42;5.73;;;3.80;;
1366;SDS011;16877;48.810;9.282;2023-05-19T12:47:16;7.47;;;4.07;;
1366;SDS011;16877;48.810;9.282;2023-05-19T12:49:53;4.83;;;3.30;;
1366;SDS011;16877;48.810;9.282;2023-05-19T12:52:41;6.10;;;4.10;;
1366;SDS011;16877;48.810;9.282;2023-05-19T12:55:12;6.87;;;4.03;;
1366;SDS011;16877;48.810;9.282;2023-05-19T12:57:48;6.13;;;3.60;;
1366;SDS011;16877;48.810;9.282;2023-05-19T13:00:19;6.43;;;3.93;;
1366;SDS011;16877;48.810;9.282;2023-05-19T13:03:00;6.43;;;4.20;;
1366;SDS011;16877;48.810;9.282;2023-05-19T13:05:30;7.77;;;4.43;;
1366;SDS011;16877;48.810;9.282;2023-05-19T13:08:07;6.57;;;4.13;;
1366;SDS011;16877;48.810;9.282;2023-05-19T13:10:50;6.17;;;4.40;;
1366;SDS011;16877;48.810;9.282;2023-05-19T13:13:20;5.63;;;3.73;;
1366;SDS011;16877;48.810;9.282;2023-05-19T13:15:48;5.47;;;3.57;;
1366;SDS011;16877;48.810;9.282;2023-05-19T13:18:16;9.00;;;4.50;;
1366;SDS011;16877;48.810;9.282;2023-05-19T13:20:48;4.97;;;3.70;;
1366;SDS011;16877;48.810;9.282;2023-05-19T13:23:21;5.90;;;4.10;;
1366;SDS011;16877;48.810;9.282;2023-05-19T13:25:52;9.93;;;8.60;;
1366;SDS011;16877;48.810;9.282;2023-05-19T13:28:34;12.13;;;10.70;;
1366;SDS011;16877;48.810;9.282;2023-05-19T13:31:02;11.80;;;10.67;;
1366;SDS011;16877;48.810;9.282;2023-05-19T13:33:30;9.10;;;7.60;;
1366;SDS011;16877;48.810;9.282;2023-05-19T13:36:03;9.63;;;7.80;;
1366;SDS011;16877;48.810;9.282;2023-05-19T13:38:31;9.10;;;6.90;;
1366;SDS011;16877;48.810;9.282;2023-05-19T13:41:06;7.20;;;6.20;;
1366;SDS011;16877;48.810;9.282;2023-05-19T13:43:33;7.63;;;5.37;;
1366;SDS011;16877;48.810;9.282;2023-05-19T13:46:01;7.73;;;4.97;;
1366;SDS011;16877;48.810;9.282;2023-05-19T13:48:29;7.83;;;5.47;;
1366;SDS011;16877;48.810;9.282;2023-05-19T13:50:57;7.90;;;5.13;;
1366;SDS011;16877;48.810;9.282;2023-05-19T13:53:27;7.33;;;4.63;;
1366;SDS011;16877;48.810;9.282;2023-05-19T13:55:58;7.23;;;4.13;;
1366;SDS011;16877;48.810;9.282;2023-05-19T13:58:28;6.63;;;4.03;;
1366;SDS011;16877;48.810;9.282;2023-05-19T14:00:58;6.00;;;3.93;;
1366;SDS011;16877;48.810;9.282;2023-05-19T14:03:25;6.07;;;4.07;;
1366;SDS011;16877;48.810;9.282;2023-05-19T14:05:54;6.50;;;3.67;;
1366;SDS011;16877;48.810;9.282;2023-05-19T14:08:21;6.30;;;3.90;;
1366;SDS011;16877;48.810;9.282;2023-05-19T14:10:50;4.93;;;3.20;;
1366;SDS011;16877;48.810;9.282;2023-05-19T14:13:21;5.50;;;3.90;;
1366;SDS011;16877;48.810;9.282;2023-05-19T14:15:52;6.57;;;3.90;;
1366;SDS011;16877;48.810;9.282;2023-05-19T14:18:20;6.27;;;3.80;;
1366;SDS011;16877;48.810;9.282;2023-05-19T14:20:49;5.40;;;3.73;;
1366;SDS011;16877;48.810;9.282;2023-05-19T14:23:16;6.77;;;3.50;;
1366;SDS011;16877;48.810;9.282;2023-05-19T14:25:45;5.70;;;3.80;;
1366;SDS011;16877;48.810;9.282;2023-05-19T14:28:13;5.20;;;3.30;;
1366;SDS011;16877;48.810;9.282;2023-05-19T14:30:40;5.40;;;3.30;;
1366;SDS011;16877;48.810;9.282;2023-05-19T14:33:12;5.93;;;3.30;;
1366;SDS011;16877;48.810;9.282;2023-05-19T14:35:40;9.07;;;4.00;;
1366;SDS011;16877;48.810;9.282;2023-05-19T14:38:08;5.93;;;3.50;;
1366;SDS011;16877;48.810;9.282;2023-05-19T14:40:37;5.80;;;3.33;;
1366;SDS011;16877;48.810;9.282;2023-05-19T14:43:05;5.33;;;2.90;;
1366;SDS011;16877;48.810;9.282;2023-05-19T14:45:34;5.93;;;2.97;;
1366;SDS011;16877;48.810;9.282;2023-05-19T14:48:03;11.43;;;3.33;;
1366;SDS011;16877;48.810;9.282;2023-05-19T14:50:32;5.30;;;3.20;;
1366;SDS011;16877;48.810;9.282;2023-05-19T14:53:00;6.00;;;3.43;;
1366;SDS011;16877;48.810;9.282;2023-05-19T14:55:41;4.97;;;3.20;;
1366;SDS011;16877;48.810;9.282;2023-05-19T14:58:09;6.13;;;3.20;;
1366;SDS011;16877;48.810;9.282;2023-05-19T15:00:38;4.97;;;3.10;;
1366;SDS011;16877;48.810;9.282;2023-05-19T15:03:05;5.20;;;3.33;;
1366;SDS011;16877;48.810;9.282;2023-05-19T15:08:23;5.03;;;2.83;;
1366;SDS011;16877;48.810;9.282;2023-05-19T15:10:55;3.90;;;2.70;;
1366;SDS011;16877;48.810;9.282;2023-05-19T15:13:28;7.10;;;3.60;;
1366;SDS011;16877;48.810;9.282;2023-05-19T15:15:56;5.57;;;3.47;;
1366;SDS011;16877;48.810;9.282;2023-05-19T15:18:38;5.90;;;3.10;;
1366;SDS011;16877;48.810;9.282;2023-05-19T15:21:07;7.53;;;3.80;;
1366;SDS011;16877;48.810;9.282;2023-05-19T15:23:38;5.10;;;2.80;;
1366;SDS011;16877;48.810;9.282;2023-05-19T15:26:21;6.53;;;3.43;;
1366;SDS011;16877;48.810;9.282;2023-05-19T15:28:48;4.40;;;3.03;;
1366;SDS011;16877;48.810;9.282;2023-05-19T15:31:20;6.93;;;3.60;;